Time;durP1;ratioP1;P1;durP2;ratioP2;P2;SDS_P1;SDS_P2;PMS_P1;PMS_P2;Temp;Humidity;BMP_temperature;BMP_pressure;BME280_temperature;BME280_humidity;BME280_pressure;Samples;Min_cycle;Max_cycle;Signal;HPM_P1;HPM_P2
2023/05/02 00:00:54;;;;;;;8.10;5.20;;;;;;;9.78;46.54;100528.77;105640;277;39443;-71
2023/05/02 00:03:30;;;;;;;12.00;5.70;;;;;;;9.77;46.71;100526.73;105625;277;38594;-71
2023/05/02 00:06:04;;;;;;;8.00;5.70;;;;;;;9.75;46.97;100522.42;106046;277;38239;-72
2023/05/02 00:08:38;;;;;;;8.60;5.30;;;;;;;9.75;47.11;100525.07;105635;277;39249;-72
2023/05/02 00:11:13;;;;;;;8.70;4.80;;;;;;;9.74;47.21;100524.40;105516;277;174432;-73
2023/05/02 00:13:47;;;;;;;9.40;5.10;;;;;;;9.73;47.26;100521.27;105672;277;38664;-73
2023/05/02 00:16:21;;;;;;;8.80;6.10;;;;;;;9.74;47.31;100523.17;105631;277;38895;-73
2023/05/02 00:18:55;;;;;;;7.80;4.70;;;;;;;9.73;47.34;100516.23;105645;277;39643;-73
2023/05/02 00:21:29;;;;;;;9.90;5.60;;;;;;;9.72;47.26;100512.92;105672;277;38955;-73
2023/05/02 00:24:03;;;;;;;7.90;5.00;;;;;;;9.72;47.43;100509.30;105329;278;39619;-73
2023/05/02 00:26:37;;;;;;;9.90;5.50;;;;;;;9.70;47.54;100503.60;106058;285;38485;-73
2023/05/02 00:29:11;;;;;;;10.00;5.30;;;;;;;9.71;47.77;100503.40;106058;277;38645;-74
2023/05/02 00:31:45;;;;;;;9.10;5.70;;;;;;;9.71;47.70;100499.40;105404;277;38604;-73
2023/05/02 00:34:19;;;;;;;7.50;4.80;;;;;;;9.72;47.62;100497.63;106045;277;38933;-74
2023/05/02 00:36:53;;;;;;;9.50;5.30;;;;;;;9.72;47.90;100495.54;105647;277;38628;-71
2023/05/02 00:39:27;;;;;;;11.10;5.30;;;;;;;9.72;47.66;100493.07;105650;277;38246;-71
2023/05/02 00:42:01;;;;;;;9.90;5.20;;;;;;;9.73;47.66;100490.45;106080;277;39396;-72
2023/05/02 00:44:36;;;;;;;10.90;4.80;;;;;;;9.72;47.86;100491.86;105630;277;39645;-72
2023/05/02 00:47:09;;;;;;;8.30;5.20;;;;;;;9.72;47.81;100489.94;105640;277;38387;-73
2023/05/02 00:49:43;;;;;;;9.30;5.10;;;;;;;9.72;47.73;100489.06;106055;277;39441;-71
2023/05/02 00:52:18;;;;;;;8.00;5.00;;;;;;;9.74;47.85;100482.91;106055;277;38477;-71
2023/05/02 00:54:52;;;;;;;11.20;5.20;;;;;;;9.75;47.90;100484.80;105654;277;38827;-72
2023/05/02 00:57:26;;;;;;;9.50;4.90;;;;;;;9.75;47.82;100487.41;106014;277;38596;-71
2023/05/02 01:00:00;;;;;;;8.30;4.90;;;;;;;9.75;47.82;100486.04;106044;277;38798;-73
2023/05/02 01:02:42;;;;;;;10.10;5.80;;;;;;;9.73;48.01;100481.39;105624;277;38758;-73
2023/05/02 01:05:20;;;;;;;8.40;5.20;;;;;;;9.70;48.11;100477.47;105603;277;38753;-73
2023/05/02 01:08:09;;;;;;;7.50;4.70;;;;;;;9.69;48.15;100478.02;105671;277;39648;-73
2023/05/02 01:10:50;;;;;;;14.50;5.50;;;;;;;9.67;48.21;100476.38;105550;277;38243;-71
2023/05/02 01:13:26;;;;;;;8.90;4.80;;;;;;;9.66;48.05;100475.88;105923;277;174406;-71
2023/05/02 01:16:00;;;;;;;8.40;5.30;;;;;;;9.66;48.18;100472.90;105623;277;39779;-73
2023/05/02 01:18:38;;;;;;;10.60;5.10;;;;;;;9.67;48.17;100474.63;105603;277;39225;-73
2023/05/02 01:21:12;;;;;;;8.40;4.70;;;;;;;9.68;48.24;100468.33;105623;277;39464;-72
2023/05/02 01:24:05;;;;;;;7.40;4.50;;;;;;;9.67;48.20;100468.35;105630;277;38418;-72
2023/05/02 01:26:50;;;;;;;8.80;5.60;;;;;;;9.66;48.30;100468.02;106041;277;39665;-73
2023/05/02 01:29:24;;;;;;;8.10;4.90;;;;;;;9.66;48.31;100466.99;106041;277;38351;-73
2023/05/02 01:31:58;;;;;;;8.50;5.40;;;;;;;9.66;48.42;100468.91;106059;277;38228;-73
2023/05/02 01:34:32;;;;;;;9.20;5.60;;;;;;;9.65;48.42;100466.31;105616;277;40142;-72
2023/05/02 01:37:07;;;;;;;9.20;5.50;;;;;;;9.66;48.38;100465.08;104949;278;596924;-73
2023/05/02 01:39:41;;;;;;;11.20;5.10;;;;;;;9.67;48.33;100461.22;105603;277;38617;-73
2023/05/02 01:42:15;;;;;;;8.30;4.70;;;;;;;9.68;48.56;100456.11;105632;277;39000;-75
2023/05/02 01:44:50;;;;;;;8.50;4.50;;;;;;;9.70;48.34;100454.48;105616;277;38360;-73
2023/05/02 01:47:24;;;;;;;8.30;5.30;;;;;;;9.70;48.35;100448.05;105629;277;38419;-73
2023/05/02 01:49:58;;;;;;;7.50;4.60;;;;;;;9.69;48.35;100445.64;106079;277;38441;-72
2023/05/02 01:52:32;;;;;;;9.30;5.30;;;;;;;9.69;48.32;100444.42;105619;277;38454;-72
2023/05/02 01:55:08;;;;;;;8.90;4.80;;;;;;;9.68;48.32;100445.83;105621;277;38447;-71
2023/05/02 01:57:44;;;;;;;8.10;4.70;;;;;;;9.67;48.37;100449.70;105592;277;39464;-71
2023/05/02 02:00:19;;;;;;;10.50;4.70;;;;;;;9.66;48.27;100448.00;105393;277;906373;-72
2023/05/02 02:02:53;;;;;;;8.20;4.80;;;;;;;9.65;48.43;100440.91;105587;277;38779;-72
2023/05/02 02:05:26;;;;;;;9.60;4.80;;;;;;;9.64;48.41;100437.63;106047;277;38917;-73
2023/05/02 02:08:00;;;;;;;9.50;4.70;;;;;;;9.63;48.59;100436.61;105610;277;39707;-72
2023/05/02 02:10:40;;;;;;;7.50;4.70;;;;;;;9.61;48.74;100434.92;105579;277;38494;-74
2023/05/02 02:13:19;;;;;;;8.60;4.80;;;;;;;9.60;48.65;100432.02;105583;277;38315;-74
2023/05/02 02:15:54;;;;;;;10.50;5.20;;;;;;;9.57;48.75;100429.46;105449;277;38468;-73
2023/05/02 02:18:28;;;;;;;6.40;4.70;;;;;;;9.56;48.89;100432.46;105476;277;174441;-73
2023/05/02 02:21:02;;;;;;;9.20;4.80;;;;;;;9.53;48.92;100430.65;106022;277;38552;-73
2023/05/02 02:23:36;;;;;;;9.20;4.80;;;;;;;9.51;49.11;100426.91;106062;277;38767;-73
2023/05/02 02:26:11;;;;;;;10.20;4.70;;;;;;;9.49;49.01;100428.35;105597;277;38815;-73
2023/05/02 02:28:44;;;;;;;7.30;4.80;;;;;;;9.47;49.03;100427.55;106025;277;38264;-73
2023/05/02 02:31:19;;;;;;;6.50;4.60;;;;;;;9.44;49.19;100423.48;105644;277;38254;-72
2023/05/02 02:33:52;;;;;;;8.30;5.20;;;;;;;9.42;49.19;100423.71;105612;277;39666;-72
2023/05/02 02:36:31;;;;;;;10.40;4.50;;;;;;;9.40;49.37;100428.81;105577;277;38243;-72
2023/05/02 02:39:18;;;;;;;10.80;5.00;;;;;;;9.40;49.45;100426.75;105563;277;38237;-71
2023/05/02 02:42:00;;;;;;;8.20;4.70;;;;;;;9.38;49.54;100425.73;105994;277;40156;-72
2023/05/02 02:44:43;;;;;;;8.70;4.90;;;;;;;9.38;49.58;100425.77;105592;277;39668;-73
2023/05/02 02:47:22;;;;;;;7.30;4.60;;;;;;;9.38;49.65;100424.55;105596;277;38240;-73
2023/05/02 02:50:05;;;;;;;;;;;;;;;9.36;49.69;100424.95;106031;277;39017;-73
2023/05/02 02:52:44;;;;;;;7.00;4.40;;;;;;;9.30;49.90;100424.95;105967;277;40047;-73
2023/05/02 02:55:29;;;;;;;9.70;5.40;;;;;;;9.30;49.85;100419.75;105642;277;39504;-71
2023/05/02 02:58:07;;;;;;;7.90;5.30;;;;;;;9.27;49.79;100416.88;105647;274;39430;-71
2023/05/02 03:00:42;;;;;;;10.00;5.40;;;;;;;9.24;50.00;100414.88;105638;277;38974;-73
2023/05/02 03:03:16;;;;;;;7.30;4.60;;;;;;;9.21;50.04;100418.80;105629;277;39386;-74
2023/05/02 03:05:50;;;;;;;9.50;5.20;;;;;;;9.18;50.06;100415.58;105646;277;38716;-73
2023/05/02 03:08:24;;;;;;;8.20;4.70;;;;;;;9.16;50.26;100414.63;105633;277;38459;-73
2023/05/02 03:10:57;;;;;;;7.40;5.20;;;;;;;9.13;50.45;100414.52;105966;277;40435;-71
2023/05/02 03:13:31;;;;;;;8.60;4.80;;;;;;;9.10;50.42;100414.13;105642;277;38605;-71
2023/05/02 03:16:37;;;;;;;9.40;4.80;;;;;;;9.07;50.61;100416.83;105972;277;38887;-73
2023/05/02 03:19:11;;;;;;;9.00;5.30;;;;;;;9.02;50.65;100417.84;105965;277;38445;-73
2023/05/02 03:21:45;;;;;;;9.70;4.90;;;;;;;8.99;50.90;100416.69;105632;277;38808;-71
2023/05/02 03:24:19;;;;;;;7.40;4.50;;;;;;;8.98;51.02;100419.00;105654;277;38260;-71
2023/05/02 03:26:56;;;;;;;9.40;5.60;;;;;;;8.96;51.15;100415.23;105628;277;38538;-73
2023/05/02 03:29:30;;;;;;;6.60;4.70;;;;;;;8.95;51.25;100415.44;106033;277;38449;-72
2023/05/02 03:32:04;;;;;;;10.20;5.00;;;;;;;8.97;51.17;100417.46;105437;279;38289;-73
2023/05/02 03:34:38;;;;;;;11.50;5.90;;;;;;;8.99;51.28;100420.86;106049;277;38935;-73
2023/05/02 03:37:12;;;;;;;9.20;5.30;;;;;;;9.01;51.42;100421.01;105622;277;38465;-73
2023/05/02 03:39:47;;;;;;;11.80;5.30;;;;;;;9.01;51.48;100415.25;105624;277;38496;-73
2023/05/02 03:42:21;;;;;;;8.40;5.50;;;;;;;9.03;51.59;100416.41;105656;277;38262;-73
2023/05/02 03:44:57;;;;;;;8.50;5.20;;;;;;;9.06;51.68;100418.59;105639;277;38230;-71
2023/05/02 03:47:30;;;;;;;8.60;4.90;;;;;;;9.07;51.59;100416.48;105650;277;38503;-71
2023/05/02 03:50:05;;;;;;;7.80;5.40;;;;;;;9.11;51.61;100410.79;105339;277;39661;-71
2023/05/02 03:52:39;;;;;;;9.50;5.10;;;;;;;9.13;51.69;100414.19;105408;267;38690;-71
2023/05/02 03:55:14;;;;;;;9.20;5.90;;;;;;;9.16;51.87;100413.73;105654;277;38435;-73
2023/05/02 03:57:47;;;;;;;8.40;5.40;;;;;;;9.19;51.89;100413.45;105381;277;38243;-73
2023/05/02 04:00:22;;;;;;;9.90;5.50;;;;;;;9.25;52.06;100416.58;105643;277;38247;-71
2023/05/02 04:02:56;;;;;;;8.40;5.00;;;;;;;9.32;52.01;100418.48;105624;277;39616;-72
2023/05/02 04:05:30;;;;;;;8.40;5.10;;;;;;;9.40;51.84;100420.12;105654;277;39652;-73
2023/05/02 04:08:05;;;;;;;9.10;5.40;;;;;;;9.47;52.04;100422.00;104987;277;906656;-73
2023/05/02 04:10:38;;;;;;;7.20;4.80;;;;;;;9.54;51.87;100420.34;105284;277;38738;-73
2023/05/02 04:13:13;;;;;;;7.60;5.10;;;;;;;9.64;51.79;100418.63;106019;277;39706;-73
2023/05/02 04:15:48;;;;;;;8.80;4.90;;;;;;;9.75;52.00;100415.65;105647;277;38389;-72
2023/05/02 04:18:22;;;;;;;10.30;5.60;;;;;;;9.88;51.78;100416.77;105631;277;39414;-72
2023/05/02 04:20:56;;;;;;;12.00;5.20;;;;;;;10.01;51.58;100418.08;105653;277;39680;-73
2023/05/02 04:23:30;;;;;;;9.30;4.90;;;;;;;10.10;51.39;100417.56;105644;277;39609;-73
2023/05/02 04:26:04;;;;;;;8.80;5.40;;;;;;;10.21;51.20;100415.80;105614;277;38650;-73
2023/05/02 04:28:38;;;;;;;9.80;5.20;;;;;;;10.33;51.03;100419.58;106053;277;38617;-73
2023/05/02 04:31:12;;;;;;;7.50;4.70;;;;;;;10.43;50.95;100418.67;106037;277;38274;-71
2023/05/02 04:33:47;;;;;;;9.00;5.30;;;;;;;10.55;50.87;100415.98;106049;277;38555;-71
2023/05/02 04:36:21;;;;;;;12.60;4.80;;;;;;;10.68;50.75;100418.80;106058;277;39623;-72
2023/05/02 04:38:55;;;;;;;8.10;5.20;;;;;;;10.83;50.49;100416.13;105655;277;38523;-72
2023/05/02 04:41:29;;;;;;;10.20;4.80;;;;;;;11.05;50.42;100413.35;106049;277;39896;-73
2023/05/02 04:44:03;;;;;;;7.80;4.90;;;;;;;11.27;50.03;100413.86;105634;277;38595;-73
2023/05/02 04:46:37;;;;;;;7.90;4.90;;;;;;;11.53;50.03;100415.29;105624;277;39934;-73
2023/05/02 04:49:11;;;;;;;8.20;4.90;;;;;;;11.85;49.57;100408.88;105638;277;40064;-73
2023/05/02 04:51:45;;;;;;;10.40;5.30;;;;;;;12.11;48.87;100411.79;105395;279;38496;-73
2023/05/02 04:54:19;;;;;;;8.40;4.80;;;;;;;12.31;48.56;100408.09;105615;277;38267;-72
2023/05/02 04:56:53;;;;;;;10.20;5.00;;;;;;;12.55;48.22;100411.92;106037;277;39687;-73
2023/05/02 04:59:28;;;;;;;10.10;5.10;;;;;;;13.02;48.19;100409.20;106064;277;38518;-73
2023/05/02 05:02:05;;;;;;;7.00;4.40;;;;;;;13.56;47.62;100405.73;105373;277;38432;-72
2023/05/02 05:04:39;;;;;;;9.00;4.80;;;;;;;14.18;46.34;100405.00;105619;277;39895;-73
2023/05/02 05:07:13;;;;;;;6.60;5.00;;;;;;;14.79;45.91;100404.94;105651;277;38212;-74
2023/05/02 05:09:47;;;;;;;7.90;4.90;;;;;;;15.72;44.11;100401.45;106059;277;39430;-72
2023/05/02 05:12:21;;;;;;;9.80;5.90;;;;;;;16.46;42.38;100395.58;105381;277;38266;-71
2023/05/02 05:14:55;;;;;;;8.40;4.60;;;;;;;16.83;40.86;100395.56;105640;278;38465;-74
2023/05/02 05:17:29;;;;;;;11.50;5.40;;;;;;;16.93;39.87;100397.20;106011;277;38345;-74
2023/05/02 05:20:03;;;;;;;7.80;4.90;;;;;;;16.92;39.78;100393.37;105384;277;38233;-74
2023/05/02 05:22:43;;;;;;;9.40;5.20;;;;;;;17.01;39.26;100390.15;105487;277;174079;-74
2023/05/02 05:25:17;;;;;;;7.40;4.90;;;;;;;17.17;39.14;100386.30;105405;277;38511;-73
2023/05/02 05:27:51;;;;;;;8.30;5.00;;;;;;;17.68;39.10;100383.31;105598;277;38233;-73
2023/05/02 05:30:25;;;;;;;11.00;5.30;;;;;;;18.41;38.21;100382.46;105622;277;38374;-73
2023/05/02 05:32:59;;;;;;;6.00;5.00;;;;;;;19.19;37.75;100384.53;105610;277;38376;-73
2023/05/02 05:35:33;;;;;;;7.00;4.30;;;;;;;20.08;36.54;100374.75;106055;277;39435;-75
2023/05/02 05:38:07;;;;;;;6.00;4.30;;;;;;;20.96;35.78;100379.71;105607;277;39460;-75
2023/05/02 05:40:41;;;;;;;7.50;4.30;;;;;;;21.74;33.89;100371.79;105581;277;38256;-75
2023/05/02 05:43:15;;;;;;;9.50;4.40;;;;;;;21.68;32.55;100372.73;106006;277;38624;-75
2023/05/02 05:45:49;;;;;;;7.80;4.40;;;;;;;21.39;32.48;100378.99;106081;277;38243;-74
2023/05/02 05:48:23;;;;;;;5.60;4.70;;;;;;;20.98;32.75;100381.48;105542;277;39643;-74
2023/05/02 05:50:57;;;;;;;7.30;4.70;;;;;;;21.06;34.21;100377.65;105547;277;40275;-73
2023/05/02 05:53:31;;;;;;;8.30;4.80;;;;;;;21.38;32.81;100376.84;105594;277;39056;-73
2023/05/02 05:56:12;;;;;;;7.10;4.60;;;;;;;21.23;32.95;100376.98;105576;277;38831;-73
2023/05/02 05:58:46;;;;;;;5.50;4.50;;;;;;;21.71;33.38;100378.52;105562;277;39517;-73
2023/05/02 06:01:20;;;;;;;5.90;4.40;;;;;;;22.55;32.64;100379.89;105422;277;38218;-74
2023/05/02 06:03:54;;;;;;;6.50;4.60;;;;;;;22.82;31.54;100380.21;105550;277;38493;-74
2023/05/02 06:06:28;;;;;;;7.50;4.40;;;;;;;22.66;31.15;100380.64;106007;277;38274;-75
2023/05/02 06:09:03;;;;;;;7.00;4.50;;;;;;;22.36;31.29;100380.91;105562;277;38493;-75
2023/05/02 06:11:38;;;;;;;6.90;4.60;;;;;;;22.16;31.54;100379.59;105561;277;39567;-73
2023/05/02 06:14:12;;;;;;;7.10;4.90;;;;;;;21.97;31.62;100376.05;105983;277;39686;-73
2023/05/02 06:16:46;;;;;;;8.30;4.70;;;;;;;21.78;32.04;100378.44;105578;277;39411;-75
2023/05/02 06:19:20;;;;;;;8.00;4.20;;;;;;;21.81;32.40;100378.83;105990;277;38571;-75
2023/05/02 06:22:00;;;;;;;6.80;4.50;;;;;;;21.76;32.17;100376.83;105594;277;38437;-75
2023/05/02 06:24:34;;;;;;;5.40;3.80;;;;;;;21.58;33.00;100381.18;105574;277;39753;-74
2023/05/02 06:27:08;;;;;;;5.60;3.80;;;;;;;21.43;33.25;100386.69;105572;277;38546;-74
2023/05/02 06:29:43;;;;;;;6.40;3.90;;;;;;;21.36;33.40;100387.95;105655;277;38609;-75
2023/05/02 06:32:16;;;;;;;8.90;4.30;;;;;;;21.73;33.98;100386.84;105318;277;38248;-75
2023/05/02 06:34:50;;;;;;;8.40;4.00;;;;;;;22.08;33.92;100384.54;105322;279;38651;-73
2023/05/02 06:37:25;;;;;;;5.50;4.00;;;;;;;22.99;33.36;100381.67;105581;277;39265;-73
2023/05/02 06:39:59;;;;;;;6.40;4.00;;;;;;;23.96;32.26;100381.73;105935;277;40165;-75
2023/05/02 06:42:33;;;;;;;6.30;3.40;;;;;;;24.83;31.06;100379.45;105378;277;38280;-76
2023/05/02 06:45:08;;;;;;;5.50;3.50;;;;;;;25.58;29.84;100378.83;105593;277;38992;-74
2023/05/02 06:47:42;;;;;;;5.80;3.90;;;;;;;26.33;29.11;100381.73;105612;277;39088;-74
2023/05/02 06:50:16;;;;;;;6.40;3.90;;;;;;;26.63;28.00;100383.20;105615;277;38779;-75
2023/05/02 06:52:50;;;;;;;6.80;3.30;;;;;;;26.78;27.59;100387.77;105613;277;39412;-75
2023/05/02 06:55:24;;;;;;;4.10;3.70;;;;;;;26.85;27.33;100387.86;105617;277;38265;-75
2023/05/02 06:57:58;;;;;;;6.40;3.50;;;;;;;26.73;27.63;100385.57;105681;277;39825;-75
2023/05/02 07:00:32;;;;;;;5.50;3.20;;;;;;;26.68;27.85;100387.14;105668;277;38661;-76
2023/05/02 07:03:06;;;;;;;6.80;4.00;;;;;;;26.70;27.84;100388.69;105687;277;38286;-75
2023/05/02 07:05:40;;;;;;;5.10;3.50;;;;;;;26.79;27.87;100389.45;105989;277;38665;-72
2023/05/02 07:08:14;;;;;;;6.00;3.50;;;;;;;26.81;28.11;100392.09;105674;277;38441;-73
2023/05/02 07:10:48;;;;;;;6.40;3.30;;;;;;;26.95;27.89;100387.55;105635;277;38567;-73
2023/05/02 07:13:22;;;;;;;5.00;3.40;;;;;;;26.95;27.64;100388.00;105955;277;38609;-73
2023/05/02 07:15:56;;;;;;;3.80;3.20;;;;;;;26.92;27.89;100387.98;105667;277;38617;-76
2023/05/02 07:18:30;;;;;;;4.50;3.00;;;;;;;27.15;27.62;100382.92;105656;277;40055;-76
2023/05/02 07:21:04;;;;;;;4.50;2.80;;;;;;;27.48;27.56;100384.00;105679;277;38228;-77
2023/05/02 07:23:38;;;;;;;5.90;2.90;;;;;;;27.87;27.00;100385.08;105680;277;38478;-75
2023/05/02 07:26:12;;;;;;;4.20;2.50;;;;;;;28.43;26.46;100385.09;105673;277;38238;-75
2023/05/02 07:28:46;;;;;;;4.90;2.50;;;;;;;29.00;26.03;100387.89;105628;277;38494;-75
2023/05/02 07:31:20;;;;;;;8.10;2.40;;;;;;;29.54;24.93;100385.37;105629;277;38426;-76
2023/05/02 07:33:54;;;;;;;6.40;2.50;;;;;;;29.88;24.14;100389.63;105897;277;173381;-76
2023/05/02 07:36:28;;;;;;;5.30;2.50;;;;;;;30.10;23.54;100386.16;105597;277;38218;-74
2023/05/02 07:39:02;;;;;;;4.00;2.10;;;;;;;30.22;23.56;100387.86;105530;277;173400;-74
2023/05/02 07:41:36;;;;;;;4.60;2.20;;;;;;;30.23;23.29;100383.43;105651;277;38468;-76
2023/05/02 07:44:10;;;;;;;4.30;2.50;;;;;;;30.25;23.45;100379.81;105670;277;38692;-76
2023/05/02 07:46:44;;;;;;;4.30;2.60;;;;;;;30.47;23.59;100382.48;105642;277;39428;-76
2023/05/02 07:49:18;;;;;;;3.90;2.40;;;;;;;30.74;23.40;100388.55;105627;277;39486;-76
2023/05/02 07:51:52;;;;;;;5.70;2.30;;;;;;;30.94;22.92;100393.11;105989;277;38386;-76
2023/05/02 07:54:27;;;;;;;10.10;2.70;;;;;;;31.06;22.60;100394.73;105660;277;39515;-77
2023/05/02 07:57:04;;;;;;;3.60;2.40;;;;;;;31.25;22.61;100398.29;105984;277;39532;-75
2023/05/02 07:59:38;;;;;;;4.30;2.80;;;;;;;31.46;22.40;100399.27;105686;277;38528;-75
2023/05/02 08:02:12;;;;;;;3.30;2.20;;;;;;;31.68;21.59;100401.04;105977;277;38428;-76
2023/05/02 08:04:46;;;;;;;6.10;3.30;;;;;;;31.81;21.46;100401.31;105688;277;38531;-76
2023/05/02 08:07:20;;;;;;;3.90;3.10;;;;;;;31.96;22.05;100402.99;105993;277;38935;-76
2023/05/02 08:09:54;;;;;;;5.70;3.40;;;;;;;32.34;21.47;100406.60;106037;277;39457;-77
2023/05/02 08:12:28;;;;;;;5.10;2.80;;;;;;;32.54;21.08;100406.38;105372;277;39880;-77
2023/05/02 08:15:06;;;;;;;6.40;3.00;;;;;;;32.75;20.87;100408.77;106023;277;39450;-76
2023/05/02 08:17:40;;;;;;;3.70;2.90;;;;;;;32.83;20.73;100409.35;105625;277;39453;-76
2023/05/02 08:20:15;;;;;;;6.20;3.20;;;;;;;33.05;21.09;100414.60;105642;277;38502;-75
2023/05/02 08:22:50;;;;;;;4.20;3.20;;;;;;;33.33;20.82;100414.14;105629;277;38389;-75
2023/05/02 08:25:24;;;;;;;5.10;3.30;;;;;;;33.58;20.81;100415.14;105336;278;38612;-75
2023/05/02 08:27:58;;;;;;;5.10;3.40;;;;;;;33.65;20.76;100413.43;105640;277;38589;-75
2023/05/02 08:30:32;;;;;;;3.80;3.30;;;;;;;33.72;20.57;100419.06;105453;277;38444;-75
2023/05/02 08:33:06;;;;;;;4.90;3.50;;;;;;;33.72;20.38;100420.98;105662;277;39302;-75
2023/05/02 08:35:40;;;;;;;6.40;3.70;;;;;;;33.66;20.38;100419.90;105632;277;38241;-77
2023/05/02 08:38:14;;;;;;;4.60;3.50;;;;;;;33.59;20.56;100423.27;105625;277;38645;-77
2023/05/02 08:40:48;;;;;;;5.00;4.10;;;;;;;33.56;20.39;100426.27;105627;277;40013;-76
2023/05/02 08:43:22;;;;;;;4.90;3.70;;;;;;;33.45;20.11;100429.92;105614;277;38253;-76
2023/05/02 08:45:56;;;;;;;5.70;4.30;;;;;;;33.14;20.37;100430.22;106049;277;39061;-75
2023/05/02 08:48:30;;;;;;;6.20;4.20;;;;;;;32.93;20.20;100432.55;106054;277;38457;-74
2023/05/02 08:51:04;;;;;;;6.40;3.50;;;;;;;32.79;20.55;100431.98;105639;277;40305;-73
2023/05/02 08:53:39;;;;;;;4.70;4.30;;;;;;;32.79;20.67;100436.23;106049;277;39978;-72
2023/05/02 08:56:13;;;;;;;6.80;3.60;;;;;;;32.76;21.06;100433.76;105650;277;38531;-74
2023/05/02 08:58:47;;;;;;;9.30;3.70;;;;;;;32.84;21.33;100428.16;105616;277;38846;-77
2023/05/02 09:01:23;;;;;;;7.60;4.00;;;;;;;32.89;20.85;100434.12;105627;277;39417;-76
2023/05/02 09:03:58;;;;;;;7.00;4.40;;;;;;;32.57;20.80;100430.19;105625;277;38369;-76
2023/05/02 09:06:32;;;;;;;6.60;3.80;;;;;;;32.08;21.36;100435.80;105626;277;38383;-74
2023/05/02 09:09:05;;;;;;;6.20;3.90;;;;;;;31.70;22.31;100440.59;105624;265;38340;-74
2023/05/02 09:11:39;;;;;;;6.70;3.50;;;;;;;31.67;22.49;100437.77;105631;277;38659;-77
2023/05/02 09:14:19;;;;;;;4.90;4.30;;;;;;;31.40;22.47;100447.38;105625;277;38486;-77
2023/05/02 09:16:53;;;;;;;7.40;4.00;;;;;;;30.95;22.27;100443.75;106016;277;40080;-73
2023/05/02 09:19:30;;;;;;;4.80;3.70;;;;;;;30.40;22.80;100450.13;105577;277;38495;-73
2023/05/02 09:22:04;;;;;;;5.10;4.00;;;;;;;29.83;23.28;100443.64;105597;277;39966;-74
2023/05/02 09:24:38;;;;;;;5.20;4.60;;;;;;;29.33;24.46;100446.20;105588;277;38791;-76
2023/05/02 09:27:12;;;;;;;5.00;4.20;;;;;;;28.90;24.63;100448.63;105388;277;39412;-77
2023/05/02 09:29:46;;;;;;;5.90;4.50;;;;;;;28.43;25.46;100455.10;105584;277;40178;-75
2023/05/02 09:32:20;;;;;;;6.50;4.10;;;;;;;28.01;25.90;100463.70;105585;277;38397;-74
2023/05/02 09:35:08;;;;;;;9.60;4.70;;;;;;;27.69;26.64;100475.23;104903;279;604154;-74
2023/05/02 09:37:43;;;;;;;6.00;4.10;;;;;;;27.41;26.86;100472.39;105655;277;38648;-74
2023/05/02 09:40:18;;;;;;;6.60;4.20;;;;;;;27.22;27.48;100474.05;106021;277;38485;-75
2023/05/02 09:42:52;;;;;;;4.80;3.60;;;;;;;27.17;27.95;100472.80;105601;277;39576;-75
2023/05/02 09:45:27;;;;;;;7.20;4.30;;;;;;;27.04;28.31;100474.65;105573;277;39706;-74
2023/05/02 09:48:03;;;;;;;6.90;4.20;;;;;;;26.93;28.78;100479.20;106011;277;39661;-74
2023/05/02 09:50:40;;;;;;;5.80;4.70;;;;;;;27.07;28.92;100481.05;105570;277;38255;-76
2023/05/02 09:53:14;;;;;;;5.30;4.40;;;;;;;27.20;28.85;100478.11;105585;277;39476;-77
2023/05/02 09:55:48;;;;;;;6.50;4.00;;;;;;;27.31;28.97;100491.00;106017;277;39509;-74
2023/05/02 09:58:26;;;;;;;5.40;4.10;;;;;;;27.23;28.41;100485.04;105377;279;39499;-74
2023/05/02 10:01:00;;;;;;;5.40;3.80;;;;;;;27.08;28.76;100489.27;105603;277;39127;-76
2023/05/02 10:03:36;;;;;;;6.40;4.10;;;;;;;27.00;29.00;100490.96;105379;275;38799;-75
2023/05/02 10:06:10;;;;;;;5.90;4.10;;;;;;;27.01;29.13;100491.95;105624;277;38391;-74
2023/05/02 10:08:44;;;;;;;6.80;3.90;;;;;;;27.22;29.60;100496.92;105600;277;38660;-75
2023/05/02 10:11:18;;;;;;;5.40;4.30;;;;;;;27.55;29.61;100494.66;105643;277;38240;-76
2023/05/02 10:13:52;;;;;;;8.30;4.80;;;;;;;27.73;29.05;100504.36;105979;277;38398;-77
2023/05/02 10:16:29;;;;;;;6.00;4.60;;;;;;;27.65;28.99;100506.17;105599;277;38522;-77
2023/05/02 10:19:11;;;;;;;9.60;4.50;;;;;;;27.51;29.31;100509.45;105608;277;39371;-76
2023/05/02 10:21:45;;;;;;;5.60;4.70;;;;;;;27.40;29.81;100517.03;105366;277;39051;-76
2023/05/02 10:24:19;;;;;;;6.00;4.70;;;;;;;27.51;29.72;100518.33;105617;277;39894;-76
2023/05/02 10:26:54;;;;;;;5.80;4.40;;;;;;;27.40;29.57;100528.70;105642;277;39268;-75
2023/05/02 10:29:31;;;;;;;5.70;4.00;;;;;;;27.10;29.52;100533.13;105639;277;38275;-75
2023/05/02 10:32:06;;;;;;;4.50;4.00;;;;;;;26.67;29.98;100536.48;105652;277;38418;-76
2023/05/02 10:34:40;;;;;;;6.30;3.70;;;;;;;26.31;30.11;100543.08;105406;278;38567;-74
2023/05/02 10:37:14;;;;;;;5.60;4.10;;;;;;;25.97;30.54;100549.57;105588;277;38460;-76
2023/05/02 10:39:48;;;;;;;5.10;3.90;;;;;;;25.61;30.71;100550.90;105622;277;38268;-74
2023/05/02 10:42:22;;;;;;;5.60;3.90;;;;;;;25.28;31.01;100551.89;105590;277;39033;-73
2023/05/02 10:44:57;;;;;;;5.20;3.90;;;;;;;24.91;31.80;100558.60;105622;277;39842;-76
2023/05/02 10:47:31;;;;;;;5.40;4.40;;;;;;;24.61;32.23;100570.92;105590;277;38514;-76
2023/05/02 10:50:07;;;;;;;6.10;4.20;;;;;;;24.30;32.41;100577.71;105618;277;38849;-75
2023/05/02 10:52:41;;;;;;;7.70;4.50;;;;;;;23.96;33.05;100583.84;105605;277;38223;-75
2023/05/02 10:55:21;;;;;;;7.50;5.50;;;;;;;23.55;34.31;100588.55;105626;277;38215;-76
2023/05/02 10:58:25;;;;;;;6.70;5.50;;;;;;;23.04;35.52;100595.02;105664;277;38419;-77
2023/05/02 11:01:09;;;;;;;6.90;5.30;;;;;;;22.53;37.00;100597.22;105588;277;173773;-76
2023/05/02 11:04:00;;;;;;;7.10;5.90;;;;;;;22.11;38.69;100606.21;105651;277;38211;-76
2023/05/02 11:06:35;;;;;;;8.40;5.90;;;;;;;21.66;40.31;100604.41;105981;277;39424;-77
2023/05/02 11:09:38;;;;;;;6.40;5.80;;;;;;;21.37;41.05;100610.23;106037;276;39415;-77
2023/05/02 11:12:20;;;;;;;7.60;6.30;;;;;;;21.12;42.72;100614.15;105678;276;40035;-75
2023/05/02 11:15:03;;;;;;;7.50;5.90;;;;;;;21.00;43.03;100623.97;105689;276;38728;-74
2023/05/02 11:18:06;;;;;;;9.00;6.00;;;;;;;20.90;43.76;100634.66;106135;276;38557;-74
2023/05/02 11:20:45;;;;;;;6.50;5.90;;;;;;;20.77;44.37;100640.41;105683;277;39368;-76
2023/05/02 11:23:28;;;;;;;8.70;6.70;;;;;;;20.65;44.43;100642.91;106111;276;38408;-76
2023/05/02 11:26:06;;;;;;;9.30;7.20;;;;;;;20.45;44.40;100652.09;105678;276;39844;-76
2023/05/02 11:28:49;;;;;;;11.20;8.20;;;;;;;20.23;45.33;100660.20;105685;276;38791;-76
2023/05/02 11:31:58;;;;;;;9.40;7.60;;;;;;;20.10;46.64;100662.29;105679;276;39392;-77
2023/05/02 11:34:45;;;;;;;10.90;8.80;;;;;;;19.96;47.49;100668.26;105244;276;38518;-75
2023/05/02 11:37:23;;;;;;;13.10;10.40;;;;;;;19.94;47.96;100667.34;105656;277;39872;-76
2023/05/02 11:40:16;;;;;;;10.50;9.50;;;;;;;19.93;48.37;100669.33;105654;275;39763;-73
2023/05/02 11:42:51;;;;;;;11.20;9.70;;;;;;;19.87;48.77;100667.48;105680;276;38287;-73
2023/05/02 11:45:36;;;;;;;12.90;9.70;;;;;;;19.78;48.51;100669.16;105653;276;38224;-73
2023/05/02 11:48:16;;;;;;;11.90;9.90;;;;;;;19.75;48.80;100677.23;105694;276;37265;-73
2023/05/02 11:50:54;;;;;;;12.10;9.70;;;;;;;19.76;49.78;100675.92;106154;276;39662;-74
2023/05/02 11:53:30;;;;;;;12.90;10.20;;;;;;;19.86;49.70;100676.92;105665;276;38263;-76
2023/05/02 11:56:07;;;;;;;13.30;10.00;;;;;;;20.01;48.67;100673.37;106174;276;39982;-75
2023/05/02 11:58:44;;;;;;;11.70;9.90;;;;;;;20.10;48.04;100673.25;105358;277;39905;-76
2023/05/02 12:01:18;;;;;;;15.60;10.80;;;;;;;20.22;48.01;100678.23;106123;277;39468;-75
2023/05/02 12:04:03;;;;;;;16.70;11.30;;;;;;;20.41;48.58;100680.40;105656;276;40158;-76
2023/05/02 12:06:37;;;;;;;10.80;9.40;;;;;;;20.65;47.97;100683.02;106126;277;39830;-75